createdAt,value
2018-09-08T00:00:01.596Z,80.10
2018-09-08T00:01:01.784Z,80.00
2018-09-08T00:02:01.919Z,80.00
2018-09-08T00:03:02.057Z,79.81
2018-09-08T00:04:02.188Z,80.77
2018-09-08T00:05:02.353Z,80.58
2018-09-08T00:06:02.498Z,80.67
2018-09-08T00:07:02.635Z,80.96
2018-09-08T00:08:02.785Z,80.58
2018-09-08T00:09:02.931Z,80.48
2018-09-08T00:10:03.063Z,81.05
2018-09-08T00:11:03.198Z,81.05
2018-09-08T00:12:03.337Z,80.77
2018-09-08T00:13:03.493Z,81.25
2018-09-08T00:14:03.632Z,80.96
2018-09-08T00:15:03.764Z,81.25
2018-09-08T00:16:03.897Z,81.78
2018-09-08T00:17:04.048Z,81.82
2018-09-08T00:18:05.089Z,81.92
2018-09-08T00:19:04.370Z,81.02
2018-09-08T00:20:04.508Z,81.25
2018-09-08T00:21:04.718Z,81.44
2018-09-08T00:22:04.722Z,81.68
2018-09-08T00:23:04.862Z,81.82
2018-09-08T00:24:04.992Z,81.97
2018-09-08T00:25:05.133Z,81.59
2018-09-08T00:26:05.267Z,81.78
2018-09-08T00:27:05.404Z,81.49
2018-09-08T00:28:05.548Z,82.17
2018-09-08T00:29:05.681Z,82.45
2018-09-08T00:30:05.813Z,82.64
2018-09-08T00:31:05.951Z,82.74
2018-09-08T00:32:06.086Z,82.74
2018-09-08T00:33:06.223Z,83.03
2018-09-08T00:34:06.358Z,82.49
2018-09-08T00:35:06.489Z,82.83
2018-09-08T00:36:06.623Z,82.45
2018-09-08T00:37:06.762Z,82.83
2018-09-08T00:38:06.895Z,82.40
2018-09-08T00:39:07.031Z,83.03
2018-09-08T00:40:07.166Z,82.59
2018-09-08T00:41:07.303Z,82.74
2018-09-08T00:42:07.444Z,82.59
2018-09-08T00:43:07.573Z,82.64
2018-09-08T00:44:07.715Z,83.03
2018-09-08T00:45:07.845Z,82.83
2018-09-08T00:46:07.984Z,82.74
2018-09-08T00:47:08.134Z,83.22
2018-09-08T00:48:08.260Z,83.50
2018-09-08T00:49:08.395Z,83.03
2018-09-08T00:50:08.538Z,83.50
2018-09-08T00:51:08.678Z,82.83
2018-09-08T00:52:08.814Z,83.12
2018-09-08T00:53:08.950Z,83.12
2018-09-08T00:54:09.082Z,82.93
2018-09-08T00:55:09.215Z,83.12
2018-09-08T00:56:09.349Z,82.93
2018-09-08T00:57:09.559Z,83.60
2018-09-08T00:58:09.635Z,83.60
2018-09-08T00:59:09.773Z,83.03
2018-09-08T01:00:09.906Z,83.79
2018-09-08T01:01:10.052Z,83.22
2018-09-08T01:02:10.194Z,83.50
2018-09-08T01:03:10.326Z,83.69
2018-09-08T01:04:10.468Z,83.60
2018-09-08T01:05:10.595Z,83.60
2018-09-08T01:06:10.724Z,83.79
2018-09-08T01:07:10.858Z,83.79
2018-09-08T01:08:10.989Z,83.40
2018-09-08T01:09:11.145Z,83.12
2018-09-08T01:10:11.278Z,83.69
2018-09-08T01:11:11.414Z,84.36
2018-09-08T01:12:11.558Z,84.17
2018-09-08T01:13:11.692Z,84.17
2018-09-08T01:14:11.827Z,84.17
2018-09-08T01:15:11.962Z,83.79
2018-09-08T01:16:12.191Z,83.69
2018-09-08T01:17:12.194Z,83.79
2018-09-08T01:18:12.330Z,83.60
2018-09-08T01:19:12.465Z,84.27
2018-09-08T01:20:12.626Z,84.17
2018-09-08T01:21:12.767Z,83.56
2018-09-08T01:22:12.904Z,83.27
2018-09-08T01:23:13.043Z,83.56
2018-09-08T01:24:13.184Z,83.27
2018-09-08T01:25:13.311Z,82.98
2018-09-08T01:26:13.446Z,83.17
2018-09-08T01:27:13.604Z,83.37
2018-09-08T01:28:13.731Z,83.65
2018-09-08T01:29:13.868Z,83.37
2018-09-08T01:30:14.032Z,83.17
2018-09-08T01:31:14.158Z,83.37
2018-09-08T01:32:14.297Z,83.27
2018-09-08T01:33:14.450Z,83.51
2018-09-08T01:34:14.588Z,84.13
2018-09-08T01:35:14.721Z,83.90
2018-09-08T01:36:14.879Z,84.28
2018-09-08T01:37:15.006Z,84.85
2018-09-08T01:38:15.141Z,84.85
2018-09-08T01:39:15.277Z,85.14
2018-09-08T01:40:15.418Z,85.52
2018-09-08T01:41:15.557Z,85.24
2018-09-08T01:42:15.690Z,85.52
2018-09-08T01:43:15.819Z,85.24
2018-09-08T01:44:15.959Z,85.29
2018-09-08T01:45:16.094Z,85.58
2018-09-08T01:46:16.237Z,85.62
2018-09-08T01:47:16.372Z,85.71
2018-09-08T01:48:17.108Z,85.62
2018-09-08T01:49:16.645Z,86.10
2018-09-08T01:50:16.777Z,85.48
2018-09-08T01:51:16.913Z,85.77
2018-09-08T01:52:17.051Z,85.29
2018-09-08T01:53:17.188Z,85.77
2018-09-08T01:54:17.320Z,85.86
2018-09-08T01:55:17.453Z,86.43
2018-09-08T01:56:17.589Z,86.15
2018-09-08T01:57:17.727Z,86.34
2018-09-08T01:58:17.864Z,86.53
2018-09-08T01:59:18.006Z,87.10
2018-09-08T02:00:18.143Z,86.63
2018-09-08T02:01:18.277Z,86.82
2018-09-08T02:02:18.407Z,86.72
2018-09-08T02:03:18.547Z,86.63
2018-09-08T02:04:18.678Z,86.53
2018-09-08T02:05:18.814Z,86.53
2018-09-08T02:06:18.947Z,86.24
2018-09-08T02:07:19.083Z,86.82
2018-09-08T02:08:19.214Z,86.91
2018-09-08T02:09:19.349Z,86.63
2018-09-08T02:10:19.476Z,87.29
2018-09-08T02:11:19.613Z,87.10
2018-09-08T02:12:19.746Z,86.91
2018-09-08T02:13:19.880Z,87.29
2018-09-08T02:14:20.030Z,87.20
2018-09-08T02:15:20.163Z,87.48
2018-09-08T02:16:20.298Z,87.58
2018-09-08T02:17:20.451Z,87.10
2018-09-08T02:18:20.600Z,87.58
2018-09-08T02:19:20.734Z,87.68
2018-09-08T02:20:20.866Z,87.48
2018-09-08T02:21:21.045Z,87.48
2018-09-08T02:22:21.158Z,87.48
2018-09-08T02:23:21.290Z,87.48
2018-09-08T02:24:21.430Z,87.39
2018-09-08T02:25:21.578Z,87.58
2018-09-08T02:26:21.704Z,87.58
2018-09-08T02:27:21.831Z,87.25
2018-09-08T02:28:21.992Z,87.35
2018-09-08T02:29:22.120Z,88.01
2018-09-08T02:30:22.257Z,88.59
2018-09-08T02:31:22.391Z,88.45
2018-09-08T02:32:22.548Z,89.25
2018-09-08T02:33:22.674Z,89.16
2018-09-08T02:34:22.807Z,89.35
2018-09-08T02:35:22.935Z,89.25
2018-09-08T02:36:23.085Z,89.45
2018-09-08T02:37:23.214Z,89.06
2018-09-08T02:38:23.349Z,88.97
2018-09-08T02:39:23.487Z,89.16
2018-09-08T02:40:23.633Z,89.16
2018-09-08T02:41:23.767Z,89.50
2018-09-08T02:42:23.906Z,89.69
2018-09-08T02:43:24.063Z,90.26
2018-09-08T02:44:24.194Z,90.45
2018-09-08T02:45:24.332Z,90.07
2018-09-08T02:46:24.472Z,90.73
2018-09-08T02:47:24.602Z,91.21
2018-09-08T02:48:24.734Z,91.31
2018-09-08T02:49:24.870Z,90.69
2018-09-08T02:50:25.009Z,90.88
2018-09-08T02:51:25.165Z,90.11
2018-09-08T02:52:25.294Z,90.31
2018-09-08T02:53:25.431Z,90.21
2018-09-08T02:54:25.561Z,89.45
2018-09-08T02:55:25.709Z,89.25
2018-09-08T02:56:25.846Z,89.54
2018-09-08T02:57:25.976Z,88.97
2018-09-08T02:58:26.118Z,88.30
2018-09-08T02:59:26.248Z,88.45
2018-09-08T03:00:26.390Z,88.07
2018-09-08T03:01:26.524Z,88.73
2018-09-08T03:02:26.658Z,89.69
2018-09-08T03:03:26.786Z,89.12
2018-09-08T03:04:26.922Z,90.12
2018-09-08T03:05:27.056Z,90.50
2018-09-08T03:06:27.190Z,90.41
2018-09-08T03:07:27.324Z,90.88
2018-09-08T03:08:27.462Z,91.27
2018-09-08T03:09:27.603Z,91.17
2018-09-08T03:10:27.736Z,90.88
2018-09-08T03:11:27.866Z,90.98
2018-09-08T03:12:28.000Z,90.98
2018-09-08T03:13:28.134Z,90.59
2018-09-08T03:14:28.272Z,90.22
2018-09-08T03:15:28.416Z,90.79
2018-09-08T03:16:28.544Z,90.50
2018-09-08T03:17:28.684Z,90.69
2018-09-08T03:18:28.833Z,91.02
2018-09-08T03:19:28.962Z,90.36
2018-09-08T03:20:29.098Z,90.07
2018-09-08T03:21:29.231Z,90.26
2018-09-08T03:22:29.373Z,89.59
2018-09-08T03:23:29.505Z,89.59
2018-09-08T03:24:29.638Z,88.73
2018-09-08T03:25:29.766Z,88.35
2018-09-08T03:26:29.899Z,88.73
2018-09-08T03:27:30.038Z,88.68
2018-09-08T03:28:30.176Z,88.68
2018-09-08T03:29:30.311Z,88.30
2018-09-08T03:30:30.441Z,87.82
2018-09-08T03:31:30.573Z,87.21
2018-09-08T03:32:30.709Z,87.78
2018-09-08T03:33:30.848Z,87.68
2018-09-08T03:34:30.979Z,88.49
2018-09-08T03:35:31.109Z,88.20
2018-09-08T03:36:31.247Z,88.49
2018-09-08T03:37:31.383Z,88.01
2018-09-08T03:38:31.507Z,87.68
2018-09-08T03:39:31.642Z,88.01
2018-09-08T03:40:31.823Z,88.49
2018-09-08T03:41:31.916Z,88.40
2018-09-08T03:42:32.051Z,87.78
2018-09-08T03:43:32.222Z,88.30
2018-09-08T03:44:32.352Z,88.07
2018-09-08T03:45:32.483Z,87.92
2018-09-08T03:46:32.620Z,87.82
2018-09-08T03:47:32.802Z,87.25
2018-09-08T03:48:32.917Z,87.54
2018-09-08T03:49:33.051Z,86.58
2018-09-08T03:50:33.186Z,86.77
2018-09-08T03:51:33.330Z,86.68
2018-09-08T03:52:33.467Z,86.68
2018-09-08T03:53:33.603Z,86.39
2018-09-08T03:54:33.735Z,86.20
2018-09-08T03:55:33.892Z,86.30
2018-09-08T03:56:34.637Z,86.58
2018-09-08T03:57:34.144Z,86.77
2018-09-08T03:58:34.297Z,85.72
2018-09-08T03:59:34.428Z,86.30
2018-09-08T04:00:34.559Z,86.68
2018-09-08T04:01:34.695Z,86.77
2018-09-08T04:02:34.861Z,86.87
2018-09-08T04:03:34.988Z,86.63
2018-09-08T04:04:35.130Z,87.40
2018-09-08T04:05:35.287Z,87.49
2018-09-08T04:06:35.401Z,87.97
2018-09-08T04:07:35.533Z,88.54
2018-09-08T04:08:35.669Z,88.40
2018-09-08T04:09:35.804Z,89.21
2018-09-08T04:10:35.973Z,89.07
2018-09-08T04:11:36.084Z,88.98
2018-09-08T04:12:36.218Z,89.26
2018-09-08T04:13:36.353Z,89.83
2018-09-08T04:14:36.509Z,89.64
2018-09-08T04:15:36.638Z,89.98
2018-09-08T04:16:36.772Z,90.36
2018-09-08T04:17:36.907Z,90.84
2018-09-08T04:18:37.040Z,91.22
2018-09-08T04:19:37.172Z,91.60
2018-09-08T04:20:37.309Z,91.79
2018-09-08T04:21:37.451Z,92.46
2018-09-08T04:22:37.585Z,92.93
2018-09-08T04:23:37.718Z,92.93
2018-09-08T04:24:37.853Z,93.03
2018-09-08T04:25:37.997Z,92.65
2018-09-08T04:26:38.128Z,92.93
2018-09-08T04:27:38.254Z,93.03
2018-09-08T04:28:38.393Z,93.22
2018-09-08T04:29:38.605Z,93.22
2018-09-08T04:30:38.662Z,92.74
2018-09-08T04:31:38.799Z,93.22
2018-09-08T04:32:38.934Z,93.17
2018-09-08T04:33:39.067Z,93.65
2018-09-08T04:34:39.202Z,94.13
2018-09-08T04:35:39.343Z,94.32
2018-09-08T04:36:39.482Z,94.22
2018-09-08T04:37:39.611Z,94.60
2018-09-08T04:38:39.743Z,94.41
2018-09-08T04:39:39.879Z,95.27
2018-09-08T04:40:40.019Z,95.75
2018-09-08T04:41:40.141Z,95.41
2018-09-08T04:42:40.280Z,96.03
2018-09-08T04:43:40.413Z,95.98
2018-09-08T04:44:40.543Z,95.98
2018-09-08T04:45:40.705Z,95.79
2018-09-08T04:46:40.841Z,95.98
2018-09-08T04:47:40.973Z,95.98
2018-09-08T04:48:41.107Z,96.36
2018-09-08T04:49:41.243Z,96.65
2018-09-08T04:50:41.381Z,96.75
2018-09-08T04:51:41.512Z,96.08
2018-09-08T04:52:41.646Z,95.98
2018-09-08T04:53:41.776Z,96.36
2018-09-08T04:54:41.909Z,96.17
2018-09-08T04:55:42.044Z,96.36
2018-09-08T04:56:42.179Z,96.32
2018-09-08T04:57:42.307Z,96.03
2018-09-08T04:58:42.447Z,95.84
2018-09-08T04:59:42.590Z,94.98
2018-09-08T05:00:42.727Z,94.98
2018-09-08T05:01:42.858Z,94.51
2018-09-08T05:02:42.988Z,94.22
2018-09-08T05:03:43.142Z,94.13
2018-09-08T05:04:43.272Z,93.74
2018-09-08T05:05:43.398Z,93.51
2018-09-08T05:06:43.548Z,93.37
2018-09-08T05:07:43.679Z,93.27
2018-09-08T05:08:43.810Z,93.55
2018-09-08T05:09:43.938Z,93.46
2018-09-08T05:10:44.071Z,93.46
2018-09-08T05:11:44.212Z,93.46
2018-09-08T05:12:44.420Z,93.17
2018-09-08T05:13:44.470Z,93.65
2018-09-08T05:14:45.157Z,93.37
2018-09-08T05:17:16.711Z,93.27
2018-09-08T05:18:16.812Z,93.46
2018-09-08T05:19:16.953Z,94.03
2018-09-08T05:20:17.082Z,93.60
2018-09-08T05:21:17.249Z,93.46
2018-09-08T05:22:17.372Z,93.17
2018-09-08T05:23:17.509Z,93.55
2018-09-08T05:24:17.638Z,93.41
2018-09-08T05:25:17.796Z,93.88
2018-09-08T05:26:17.924Z,93.22
2018-09-08T05:27:18.063Z,93.41
2018-09-08T05:28:18.218Z,92.55
2018-09-08T05:29:18.343Z,92.65
2018-09-08T05:30:18.477Z,92.08
2018-09-08T05:31:18.616Z,91.88
2018-09-08T05:32:18.796Z,91.27
2018-09-08T05:33:18.931Z,91.55
2018-09-08T05:34:19.069Z,91.94
2018-09-08T05:35:19.194Z,92.79
2018-09-08T05:36:19.323Z,93.08
2018-09-08T05:37:19.456Z,92.50
2018-09-08T05:38:19.589Z,93.27
2018-09-08T05:39:19.748Z,93.65
2018-09-08T05:40:19.875Z,93.84
2018-09-08T05:41:20.014Z,93.12
2018-09-08T05:42:20.145Z,92.93
2018-09-08T05:43:20.285Z,92.65
2018-09-08T05:44:20.423Z,92.55
2018-09-08T05:45:20.556Z,92.36
2018-09-08T05:46:20.699Z,91.79
2018-09-08T05:47:20.839Z,91.50
2018-09-08T05:48:20.967Z,90.64
2018-09-08T05:49:21.094Z,90.84
2018-09-08T05:50:21.229Z,90.26
2018-09-08T05:51:21.361Z,90.60
2018-09-08T05:52:21.500Z,91.08
2018-09-08T05:53:21.633Z,90.93
2018-09-08T05:54:21.772Z,90.93
2018-09-08T05:55:21.912Z,90.98
2018-09-08T05:56:22.053Z,90.64
2018-09-08T05:57:22.190Z,91.41
2018-09-08T05:58:22.343Z,91.13
2018-09-08T05:59:22.454Z,91.31
2018-09-08T06:00:22.591Z,91.13
2018-09-08T06:01:22.787Z,90.89
2018-09-08T06:02:22.880Z,91.27
2018-09-08T06:03:23.277Z,91.65
2018-09-08T06:04:23.151Z,91.74
2018-09-08T06:05:23.293Z,91.94
2018-09-08T06:06:23.432Z,92.03
2018-09-08T06:07:23.569Z,91.74
2018-09-08T06:08:23.980Z,92.69
2018-09-08T06:09:23.836Z,92.69
2018-09-08T06:10:24.035Z,92.89
2018-09-08T06:11:24.104Z,92.60
2018-09-08T06:12:24.244Z,93.84
2018-09-08T06:13:24.423Z,92.79
2018-09-08T06:14:24.545Z,92.98
2018-09-08T06:15:24.694Z,93.08
2018-09-08T06:16:24.830Z,92.98
2018-09-08T06:17:25.008Z,92.89
2018-09-08T06:18:25.160Z,92.17
2018-09-08T06:19:25.235Z,92.32
2018-09-08T06:20:25.367Z,92.69
2018-09-08T06:21:25.502Z,92.89
2018-09-08T06:22:25.632Z,92.98
2018-09-08T06:23:25.760Z,93.17
2018-09-08T06:24:25.917Z,93.65
2018-09-08T06:25:26.104Z,94.13
2018-09-08T06:26:26.174Z,94.03
2018-09-08T06:27:26.308Z,95.17
2018-09-08T06:28:26.549Z,95.03
2018-09-08T06:29:26.598Z,94.98
2018-09-08T06:30:26.738Z,95.17
2018-09-08T06:31:26.871Z,94.93
2018-09-08T06:32:27.029Z,95.60
2018-09-08T06:33:27.244Z,95.32
2018-09-08T06:34:27.296Z,96.08
2018-09-08T06:35:27.443Z,96.32
2018-09-08T06:36:27.578Z,96.84
2018-09-08T06:37:27.705Z,96.80
2018-09-08T06:38:27.845Z,96.55
2018-09-08T06:39:27.981Z,97.08
2018-09-08T06:40:28.111Z,96.89
2018-09-08T06:41:28.235Z,96.32
2018-09-08T06:42:28.374Z,96.12
2018-09-08T06:43:28.510Z,95.75
2018-09-08T06:44:28.646Z,95.46
2018-09-08T06:45:28.781Z,94.98
2018-09-08T06:46:28.925Z,95.17
2018-09-08T06:47:29.065Z,94.70
2018-09-08T06:48:29.199Z,94.79
2018-09-08T06:49:29.332Z,94.89
2018-09-08T06:50:29.465Z,94.32
2018-09-08T06:51:29.599Z,94.98
2018-09-08T06:52:29.732Z,94.65
2018-09-08T06:53:29.866Z,94.93
2018-09-08T06:54:30.007Z,95.03
2018-09-08T06:55:30.144Z,94.84
2018-09-08T06:56:30.268Z,94.65
2018-09-08T06:57:30.394Z,94.46
2018-09-08T06:58:30.529Z,94.74
2018-09-08T06:59:30.663Z,94.84
2018-09-08T07:00:30.796Z,95.03
2018-09-08T07:01:30.934Z,94.84
2018-09-08T07:02:31.073Z,94.70
2018-09-08T07:03:31.301Z,94.22
2018-09-08T07:04:31.350Z,94.70
2018-09-08T07:05:31.493Z,94.32
2018-09-08T07:06:31.622Z,94.22
2018-09-08T07:07:31.756Z,93.74
2018-09-08T07:08:31.913Z,93.55
2018-09-08T07:09:32.026Z,93.17
2018-09-08T07:10:32.172Z,93.12
2018-09-08T07:11:32.303Z,92.55
2018-09-08T07:12:32.440Z,92.26
2018-09-08T07:13:32.585Z,92.46
2018-09-08T07:14:32.719Z,91.88
2018-09-08T07:15:32.856Z,91.69
2018-09-08T07:16:33.029Z,91.02
2018-09-08T07:17:33.162Z,91.36
2018-09-08T07:18:33.312Z,90.88
2018-09-08T07:19:33.441Z,90.78
2018-09-08T07:20:33.581Z,90.31
2018-09-08T07:21:33.715Z,90.02
2018-09-08T07:22:33.848Z,90.21
2018-09-08T07:23:33.980Z,89.16
2018-09-08T07:24:34.116Z,89.83
2018-09-08T07:25:34.257Z,89.45
2018-09-08T07:26:34.389Z,89.06
2018-09-08T07:27:34.529Z,89.35
2018-09-08T07:28:34.662Z,89.16
2018-09-08T07:29:34.802Z,89.35
2018-09-08T07:30:34.939Z,89.01
2018-09-08T07:31:35.075Z,89.30
2018-09-08T07:32:35.211Z,89.87
2018-09-08T07:33:35.381Z,89.30
2018-09-08T07:34:35.508Z,89.59
2018-09-08T07:35:35.653Z,89.20
2018-09-08T07:36:35.781Z,89.11
2018-09-08T07:37:35.947Z,88.82
2018-09-08T07:38:36.061Z,89.30
2018-09-08T07:39:36.192Z,89.59
2018-09-08T07:40:36.331Z,89.30
2018-09-08T07:41:36.505Z,89.49
2018-09-08T07:42:36.635Z,89.45
2018-09-08T07:43:36.769Z,89.92
2018-09-08T07:44:36.909Z,90.11
2018-09-08T07:45:37.057Z,91.36
2018-09-08T07:46:37.189Z,91.55
2018-09-08T07:47:37.333Z,91.55
2018-09-08T07:48:37.468Z,92.12
2018-09-08T07:49:37.599Z,91.55
2018-09-08T07:50:37.736Z,91.74
2018-09-08T07:51:37.896Z,91.78
2018-09-08T07:52:38.015Z,91.69
2018-09-08T07:53:38.205Z,91.30
2018-09-08T07:54:38.286Z,91.02
2018-09-08T07:55:38.440Z,91.02
2018-09-08T07:56:38.590Z,91.21
2018-09-08T07:57:38.723Z,91.30
2018-09-08T07:58:38.875Z,91.35
2018-09-08T07:59:39.017Z,90.88
2018-09-08T08:00:39.163Z,90.68
2018-09-08T08:01:39.303Z,90.97
2018-09-08T08:02:39.437Z,91.25
2018-09-08T08:03:39.621Z,90.35
2018-09-08T08:04:39.736Z,90.16
2018-09-08T08:05:39.880Z,91.02
2018-09-08T08:06:40.035Z,90.83
2018-09-08T08:07:40.188Z,91.21
2018-09-08T08:08:40.316Z,91.74
2018-09-08T08:09:40.461Z,91.59
2018-09-08T08:10:40.593Z,91.59
2018-09-08T08:11:40.739Z,91.02
2018-09-08T08:12:40.881Z,90.49
2018-09-08T08:13:41.016Z,90.35
2018-09-08T08:14:41.147Z,89.78
2018-09-08T08:15:41.309Z,89.06
2018-09-08T08:16:41.432Z,88.77
2018-09-08T08:17:41.571Z,88.29
2018-09-08T08:18:41.712Z,88.58
2018-09-08T08:19:41.884Z,87.34
2018-09-08T08:20:42.009Z,87.53
2018-09-08T08:21:42.140Z,88.68
2018-09-08T08:22:42.290Z,88.58
2018-09-08T08:23:42.423Z,86.57
2018-09-08T08:24:42.559Z,85.90
2018-09-08T08:25:42.692Z,86.86
2018-09-08T08:26:42.835Z,85.66
2018-09-08T08:27:42.968Z,84.52
2018-09-08T08:28:43.103Z,83.94
2018-09-08T08:29:43.242Z,83.46
2018-09-08T08:30:43.378Z,83.75
2018-09-08T08:31:43.513Z,83.17
2018-09-08T08:32:43.646Z,83.37
2018-09-08T08:33:43.786Z,83.17
2018-09-08T08:34:43.923Z,83.65
2018-09-08T08:35:44.069Z,84.13
2018-09-08T08:36:44.207Z,83.65
2018-09-08T08:37:44.343Z,83.27
2018-09-08T08:38:44.475Z,82.70
2018-09-08T08:39:44.613Z,81.65
2018-09-08T08:40:44.759Z,81.65
2018-09-08T08:41:44.900Z,80.98
2018-09-08T08:42:45.038Z,80.16
2018-09-08T08:43:45.170Z,80.63
2018-09-08T08:44:45.308Z,81.49
2018-09-08T08:45:45.455Z,81.88
2018-09-08T08:46:45.587Z,81.49
2018-09-08T08:47:45.720Z,81.11
2018-09-08T08:48:45.856Z,80.54
2018-09-08T08:49:45.999Z,80.44
2018-09-08T08:50:46.145Z,79.29
2018-09-08T08:51:46.278Z,79.58
2018-09-08T08:52:46.421Z,78.53
2018-09-08T08:53:46.617Z,78.43
2018-09-08T08:54:46.744Z,78.24
2018-09-08T08:55:46.900Z,78.09
2018-09-08T08:56:47.022Z,78.28
2018-09-08T08:57:47.180Z,79.05
2018-09-08T08:58:47.321Z,79.52
2018-09-08T08:59:47.461Z,78.86
2018-09-08T09:00:47.602Z,77.80
2018-09-08T09:01:47.736Z,76.46
2018-09-08T09:02:47.874Z,76.56
2018-09-08T09:03:48.021Z,76.18
2018-09-08T09:04:48.145Z,75.51
2018-09-08T09:05:48.284Z,75.54
2018-09-08T09:06:48.420Z,76.50
2018-09-08T09:07:48.557Z,77.36
2018-09-08T09:08:49.055Z,77.17
2018-09-08T09:09:48.831Z,76.50
2018-09-08T09:10:48.972Z,76.02
2018-09-08T09:11:49.467Z,76.50
2018-09-08T09:12:49.300Z,77.17
2018-09-08T09:13:49.377Z,75.54
2018-09-08T09:14:49.512Z,74.97
2018-09-08T09:15:49.651Z,74.11
2018-09-08T09:16:49.785Z,74.20
2018-09-08T09:17:49.922Z,73.63
2018-09-08T09:18:50.610Z,73.72
2018-09-08T09:19:50.191Z,72.90
2018-09-08T09:20:50.353Z,73.19
2018-09-08T09:21:50.488Z,72.61
2018-09-08T09:22:50.625Z,72.13
2018-09-08T09:23:50.761Z,72.71
2018-09-08T09:24:51.415Z,72.32
2018-09-08T09:25:51.750Z,73.38
2018-09-08T09:26:51.174Z,73.38
2018-09-08T09:27:51.327Z,72.61
2018-09-08T09:28:51.467Z,73.76
2018-09-08T09:29:51.602Z,72.52
2018-09-08T09:30:51.737Z,71.08
2018-09-08T09:31:51.926Z,71.27
2018-09-08T09:32:52.043Z,71.17
2018-09-08T09:33:52.181Z,71.75
2018-09-08T09:34:52.408Z,71.66
2018-09-08T09:35:52.492Z,70.70
2018-09-08T09:36:52.625Z,72.03
2018-09-08T09:37:52.776Z,72.03
2018-09-08T09:38:52.948Z,71.50
2018-09-08T09:39:53.084Z,71.46
2018-09-08T09:40:53.224Z,70.98
2018-09-08T09:41:53.360Z,69.68
2018-09-08T09:42:53.541Z,68.59
2018-09-08T09:43:53.660Z,69.35
2018-09-08T09:44:53.801Z,69.45
2018-09-08T09:45:53.967Z,69.29
2018-09-08T09:46:54.103Z,68.43
2018-09-08T09:47:54.274Z,68.87
2018-09-08T09:48:54.387Z,68.43
2018-09-08T09:49:54.615Z,67.66
2018-09-08T09:50:54.627Z,67.38
2018-09-08T09:51:54.764Z,67.47
2018-09-08T09:52:54.904Z,67.38
2018-09-08T09:53:55.054Z,67.18
2018-09-08T09:54:55.194Z,67.28
2018-09-08T09:55:55.330Z,67.09
2018-09-08T09:56:55.471Z,67.76
2018-09-08T09:57:55.640Z,67.85
2018-09-08T09:58:55.776Z,67.28
2018-09-08T09:59:55.917Z,66.99
2018-09-08T10:00:56.109Z,66.61
2018-09-08T10:01:56.212Z,66.89
2018-09-08T10:02:56.351Z,66.22
2018-09-08T10:03:56.488Z,64.98
2018-09-08T10:04:56.626Z,65.68
2018-09-08T10:05:56.800Z,66.45
2018-09-08T10:06:56.921Z,66.16
2018-09-08T10:07:57.048Z,66.26
2018-09-08T10:08:57.184Z,65.30
2018-09-08T10:09:57.323Z,65.88
2018-09-08T10:10:57.458Z,66.16
2018-09-08T10:11:57.609Z,66.06
2018-09-08T10:12:57.733Z,65.30
2018-09-08T10:13:57.882Z,64.63
2018-09-08T10:14:58.025Z,64.18
2018-09-08T10:15:58.160Z,64.37
2018-09-08T10:16:58.304Z,64.66
2018-09-08T10:17:58.441Z,64.37
2018-09-08T10:18:58.564Z,65.14
2018-09-08T10:19:58.720Z,66.10
2018-09-08T10:20:58.861Z,65.52
2018-09-08T10:21:59.000Z,64.85
2018-09-08T10:22:59.173Z,66.00
2018-09-08T10:24:05.155Z,63.99
2018-09-08T10:24:59.416Z,63.42
2018-09-08T10:25:59.561Z,63.70
2018-09-08T10:26:59.697Z,63.99
2018-09-08T10:27:59.832Z,64.95
2018-09-08T10:28:59.975Z,65.17
2018-09-08T10:30:00.546Z,63.60
2018-09-08T10:31:00.772Z,62.68
2018-09-08T10:32:00.436Z,62.68
2018-09-08T10:33:00.576Z,62.77
2018-09-08T10:34:00.730Z,62.58
2018-09-08T10:35:00.863Z,62.39
2018-09-08T10:36:01.010Z,62.87
2018-09-08T10:37:01.143Z,62.87
2018-09-08T10:38:01.275Z,62.77
2018-09-08T10:39:01.410Z,62.81
2018-09-08T10:40:01.549Z,64.59
2018-09-08T10:41:01.690Z,64.15
2018-09-08T10:42:01.828Z,65.20
2018-09-08T10:43:01.963Z,63.76
2018-09-08T10:44:02.105Z,61.27
2018-09-08T10:45:02.244Z,60.18
2018-09-08T10:46:02.381Z,60.31
2018-09-08T10:47:02.523Z,62.13
2018-09-08T10:48:02.677Z,61.46
2018-09-08T10:49:02.811Z,61.46
2018-09-08T10:50:02.952Z,60.14
2018-09-08T10:51:03.148Z,61.68
2018-09-08T10:52:03.270Z,61.87
2018-09-08T10:53:03.416Z,59.57
2018-09-08T10:54:03.558Z,58.22
2018-09-08T10:55:03.696Z,57.75
2018-09-08T10:56:03.844Z,57.93
2018-09-08T10:57:03.974Z,59.38
2018-09-08T10:58:04.119Z,59.66
2018-09-08T10:59:04.256Z,58.42
2018-09-08T11:00:04.412Z,59.19
2018-09-08T11:01:04.533Z,59.31
2018-09-08T11:02:04.836Z,59.41
2018-09-08T11:03:04.829Z,58.54
2018-09-08T11:04:04.958Z,59.99
2018-09-08T11:05:05.097Z,59.02
2018-09-08T11:06:05.240Z,57.87
2018-09-08T11:07:05.413Z,57.75
2018-09-08T11:08:05.553Z,56.59
2018-09-08T11:09:05.689Z,56.98
2018-09-08T11:10:05.836Z,57.48
2018-09-08T11:11:05.972Z,55.94
2018-09-08T11:12:06.108Z,54.63
2018-09-08T11:13:06.254Z,54.63
2018-09-08T11:14:06.383Z,55.68
2018-09-08T11:15:06.512Z,54.56
2018-09-08T11:16:06.655Z,55.04
2018-09-08T11:17:06.807Z,54.46
2018-09-08T11:18:06.941Z,53.59
2018-09-08T11:19:07.072Z,54.08
2018-09-08T11:20:07.215Z,54.53
2018-09-08T11:21:07.355Z,54.05
2018-09-08T11:22:07.498Z,54.34
2018-09-08T11:23:07.643Z,54.34
2018-09-08T11:24:07.785Z,53.86
2018-09-08T11:25:07.925Z,55.01
2018-09-08T11:26:08.071Z,54.41
2018-09-08T11:27:08.205Z,54.53
2018-09-08T11:28:08.354Z,55.20
2018-09-08T11:29:08.513Z,54.82
2018-09-08T11:30:08.655Z,55.08
2018-09-08T11:31:08.824Z,55.49
2018-09-08T11:32:08.960Z,55.78
2018-09-08T11:33:09.108Z,54.34
2018-09-08T11:34:09.246Z,55.30
2018-09-08T11:35:09.407Z,55.88
2018-09-08T11:36:09.517Z,55.11
2018-09-08T11:37:09.658Z,54.91
2018-09-08T11:38:09.879Z,54.82
2018-09-08T11:39:09.935Z,54.41
2018-09-08T11:40:10.078Z,53.96
2018-09-08T11:41:10.221Z,54.22
2018-09-08T11:42:10.357Z,54.41
2018-09-08T11:43:10.510Z,54.50
2018-09-08T11:44:10.651Z,53.83
2018-09-08T11:45:10.811Z,54.69
2018-09-08T11:46:10.948Z,55.08
2018-09-08T11:47:11.088Z,54.02
2018-09-08T11:48:11.228Z,53.25
2018-09-08T11:49:11.369Z,54.05
2018-09-08T11:50:11.503Z,54.43
2018-09-08T11:51:11.645Z,54.53
2018-09-08T11:52:11.796Z,53.98
2018-09-08T11:53:11.925Z,53.78
2018-09-08T11:54:12.070Z,51.98
2018-09-08T11:55:12.211Z,51.02
2018-09-08T11:56:12.350Z,51.62
2018-09-08T11:57:12.486Z,50.37
2018-09-08T11:58:12.627Z,49.70
2018-09-08T11:59:12.761Z,48.38
2018-09-08T12:00:12.897Z,47.89
2018-09-08T12:01:13.036Z,48.08
2018-09-08T12:02:13.199Z,47.12
2018-09-08T12:03:13.320Z,46.73
2018-09-08T12:04:13.461Z,46.45
2018-09-08T12:05:13.596Z,45.97
2018-09-08T12:06:13.743Z,46.08
2018-09-08T12:07:13.884Z,46.18
2018-09-08T12:08:14.031Z,45.82
2018-09-08T12:09:14.174Z,44.27
2018-09-08T12:10:14.315Z,44.29
2018-09-08T12:11:14.461Z,43.04
2018-09-08T12:12:14.613Z,42.85
2018-09-08T12:13:14.770Z,42.68
2018-09-08T12:14:14.916Z,42.12
2018-09-08T12:15:15.077Z,41.46
2018-09-08T12:16:15.207Z,41.09
2018-09-08T12:17:15.398Z,40.92
2018-09-08T12:18:15.552Z,41.41
2018-09-08T12:19:15.769Z,40.25
2018-09-08T12:20:15.846Z,39.09
2018-09-08T12:21:16.038Z,38.35
2018-09-08T12:22:16.207Z,38.93
2018-09-08T12:23:16.321Z,39.20
2018-09-08T12:24:16.472Z,38.99
2018-09-08T12:25:16.643Z,39.92
2018-09-08T12:26:16.775Z,40.11
2018-09-08T12:27:16.920Z,40.98
2018-09-08T12:28:17.070Z,41.36
2018-09-08T12:29:17.245Z,41.35
2018-09-08T12:30:17.390Z,41.85
2018-09-08T12:31:17.553Z,41.00
2018-09-08T12:32:17.690Z,39.78
2018-09-08T12:33:17.866Z,40.38
2018-09-08T12:34:18.014Z,39.04
2018-09-08T12:35:18.166Z,37.81
2018-09-08T12:36:18.317Z,36.35
2018-09-08T12:37:18.553Z,35.77
2018-09-08T12:38:18.648Z,35.77
2018-09-08T12:39:18.838Z,37.32
2018-09-08T12:40:18.989Z,36.25
2018-09-08T12:41:19.168Z,36.64
2018-09-08T12:42:19.298Z,36.35
2018-09-08T12:43:19.447Z,36.36
2018-09-08T12:44:19.596Z,36.29
2018-09-08T12:45:19.765Z,36.38
2018-09-08T12:46:19.910Z,34.74
2018-09-08T12:47:20.059Z,34.35
2018-09-08T12:48:20.210Z,34.91
2018-09-08T12:49:20.378Z,34.31
2018-09-08T12:50:20.560Z,33.92
2018-09-08T12:51:20.675Z,34.53
2018-09-08T12:52:20.820Z,34.43
2018-09-08T12:53:21.009Z,33.38
2018-09-08T12:54:21.136Z,33.78
2018-09-08T12:55:21.279Z,32.75